首页
METAR-TAF:

METAR-TAF

机场 :

Golden, 不列颠哥伦比亚, 加拿大

纬度: 51-18N, 经度: 116-59W, 海拔: 785米

当前天气观测

该预报发布于47分钟前的13:33 UTC
静风
温度 7°C
湿度 87%
气压 1011 hPa
能見度: 16.1公里
少量云层高于900英尺
多云层高于3500英尺
多云层高于9300英尺

METAR: CYGE 261333Z 00000KT 10SM FEW009 BKN035 BKN093 07/05 A2985 RMK SC1SC5AC1 DIST PCPN N LOW CLD ALG RDGS SLP119

时间: 08:20 (14:20 UTC)


TAF: 丢失

超过4000个机场的气象观测和天气预报(METAR&TAF报告)。

可查询的气象台以黄色和红色小点在地图上表示。

将鼠标移到小点上方,可查看气象台名称。

然后点击查看天气观测和预报。

如需切换地图:点击带黑十字的绿色按钮放大地图;点击带横线的绿色按钮缩小地图;或者点击绿色箭头查看邻近地区的地图。


METAR-TAF: